createdAt,value
2022-10-24T00:01:26.853Z,98104.00
2022-10-24T00:03:54.458Z,98104.00
2022-10-24T00:06:22.284Z,98111.00
2022-10-24T00:08:50.283Z,98107.00
2022-10-24T00:11:26.772Z,98109.00
2022-10-24T00:13:57.616Z,98120.00
2022-10-24T00:16:25.807Z,98116.00
2022-10-24T00:18:53.900Z,98120.00
2022-10-24T00:21:21.588Z,98122.00
2022-10-24T00:23:49.064Z,98116.00
2022-10-24T00:26:17.116Z,98125.00
2022-10-24T00:28:44.740Z,98123.00
2022-10-24T00:31:20.083Z,98104.00
2022-10-24T00:33:47.848Z,98105.00
2022-10-24T00:36:21.790Z,98122.00
2022-10-24T00:38:51.488Z,98111.00
2022-10-24T00:41:37.782Z,98113.00
2022-10-24T00:44:27.102Z,98115.00
2022-10-24T00:47:20.359Z,98116.00
2022-10-24T00:50:12.984Z,98126.00
2022-10-24T00:52:47.340Z,98132.00
2022-10-24T00:55:15.717Z,98145.00
2022-10-24T00:57:56.700Z,98156.00
2022-10-24T01:00:31.749Z,98151.00
2022-10-24T01:03:00.119Z,98156.00
2022-10-24T01:05:40.770Z,98156.00
2022-10-24T01:09:02.627Z,98148.00
2022-10-24T01:12:15.615Z,98144.00
2022-10-24T01:15:35.841Z,98132.00
2022-10-24T01:18:39.622Z,98129.00
2022-10-24T01:21:52.708Z,98137.00
2022-10-24T01:24:50.872Z,98132.00
2022-10-24T01:28:05.356Z,98139.00
2022-10-24T01:31:19.803Z,98140.00
2022-10-24T01:34:16.632Z,98127.00
2022-10-24T01:37:05.157Z,98137.00
2022-10-24T01:39:48.216Z,98129.00
2022-10-24T01:42:22.312Z,98140.00
2022-10-24T01:44:57.430Z,98133.00
2022-10-24T01:47:46.243Z,98134.00
2022-10-24T01:50:17.887Z,98141.00
2022-10-24T01:52:47.593Z,98145.00
2022-10-24T01:55:15.410Z,98129.00
2022-10-24T01:57:42.941Z,98133.00
2022-10-24T02:00:22.690Z,98120.00
2022-10-24T02:03:18.861Z,98104.00
2022-10-24T02:05:56.522Z,98105.00
2022-10-24T02:08:38.949Z,98104.00
2022-10-24T02:11:08.986Z,98110.00
2022-10-24T02:14:18.775Z,98112.00
2022-10-24T02:16:46.692Z,98109.00
2022-10-24T02:19:14.423Z,98102.00
2022-10-24T02:22:23.507Z,98100.00
2022-10-24T02:25:22.122Z,98087.00
2022-10-24T02:28:13.085Z,98109.00
2022-10-24T02:30:52.437Z,98109.00
2022-10-24T02:33:21.658Z,98115.00
2022-10-24T02:35:50.227Z,98130.00
2022-10-24T02:38:36.400Z,98144.00
2022-10-24T02:41:12.188Z,98132.00
2022-10-24T02:43:43.868Z,98148.00
2022-10-24T02:46:13.368Z,98165.00
2022-10-24T02:48:56.112Z,98164.00
2022-10-24T02:51:34.231Z,98170.00
2022-10-24T02:54:03.080Z,98181.00
2022-10-24T02:56:31.352Z,98179.00
2022-10-24T02:58:58.692Z,98161.00
2022-10-24T03:01:27.196Z,98178.00
2022-10-24T03:03:54.551Z,98185.00
2022-10-24T03:06:21.824Z,98194.00
2022-10-24T03:08:49.090Z,98188.00
2022-10-24T03:11:16.843Z,98182.00
2022-10-24T03:13:44.164Z,98193.00
2022-10-24T03:16:14.004Z,98204.00
2022-10-24T03:18:41.751Z,98209.00
2022-10-24T03:21:09.404Z,98211.00
2022-10-24T03:23:36.738Z,98205.00
2022-10-24T03:26:04.184Z,98196.00
2022-10-24T03:28:31.453Z,98179.00
2022-10-24T03:30:58.774Z,98171.00
2022-10-24T03:33:26.141Z,98177.00
2022-10-24T03:35:55.217Z,98169.00
2022-10-24T03:38:24.057Z,98176.00
2022-10-24T03:40:51.749Z,98180.00
2022-10-24T03:43:20.338Z,98180.00
2022-10-24T03:45:47.740Z,98182.00
2022-10-24T03:48:15.037Z,98170.00
2022-10-24T03:50:42.367Z,98164.00
2022-10-24T03:53:09.988Z,98170.00
2022-10-24T03:55:37.364Z,98171.00
2022-10-24T03:58:04.801Z,98173.00
2022-10-24T04:00:35.085Z,98167.00
2022-10-24T04:03:02.443Z,98175.00
2022-10-24T04:05:29.734Z,98169.00
2022-10-24T04:07:57.057Z,98166.00
2022-10-24T04:10:24.321Z,98168.00
2022-10-24T04:12:51.586Z,98150.00
2022-10-24T04:15:19.191Z,98146.00
2022-10-24T04:17:47.264Z,98135.00
2022-10-24T04:20:19.418Z,98126.00
2022-10-24T04:22:48.032Z,98134.00
2022-10-24T04:25:17.132Z,98127.00
2022-10-24T04:27:45.561Z,98130.00
2022-10-24T04:30:16.609Z,98123.00
2022-10-24T04:32:45.367Z,98137.00
2022-10-24T04:35:14.158Z,98141.00
2022-10-24T04:37:41.544Z,98140.00
2022-10-24T04:40:10.285Z,98145.00
2022-10-24T04:42:37.575Z,98150.00
2022-10-24T04:45:06.479Z,98139.00
2022-10-24T04:47:34.637Z,98156.00
2022-10-24T04:50:02.165Z,98148.00
2022-10-24T04:52:29.464Z,98154.00
2022-10-24T04:54:56.856Z,98146.00
2022-10-24T04:57:24.113Z,98136.00
2022-10-24T04:59:51.368Z,98138.00
2022-10-24T05:02:18.865Z,98156.00
2022-10-24T05:04:46.165Z,98156.00
2022-10-24T05:07:13.459Z,98140.00
2022-10-24T05:09:40.824Z,98141.00
2022-10-24T05:12:08.337Z,98141.00
2022-10-24T05:14:35.675Z,98146.00
2022-10-24T05:17:03.116Z,98142.00
2022-10-24T05:19:30.562Z,98151.00
2022-10-24T05:21:57.920Z,98141.00
2022-10-24T05:24:25.726Z,98137.00
2022-10-24T05:26:52.980Z,98129.00
2022-10-24T05:29:20.232Z,98114.00
2022-10-24T05:31:47.573Z,98119.00
2022-10-24T05:34:14.889Z,98126.00
2022-10-24T05:36:42.259Z,98126.00
2022-10-24T05:39:09.602Z,98133.00
2022-10-24T05:41:36.979Z,98133.00
2022-10-24T05:44:04.512Z,98132.00
2022-10-24T05:46:32.760Z,98135.00
2022-10-24T05:49:01.782Z,98137.00
2022-10-24T05:51:29.060Z,98134.00
2022-10-24T05:53:57.171Z,98143.00
2022-10-24T05:56:24.960Z,98151.00
2022-10-24T05:58:52.276Z,98146.00
2022-10-24T06:01:19.592Z,98139.00
2022-10-24T06:03:47.011Z,98134.00
2022-10-24T06:06:14.317Z,98130.00
2022-10-24T06:08:43.947Z,98125.00
2022-10-24T06:11:12.848Z,98136.00
2022-10-24T06:13:40.997Z,98142.00
2022-10-24T06:16:10.578Z,98142.00
2022-10-24T06:18:40.472Z,98144.00
2022-10-24T06:21:10.587Z,98150.00
2022-10-24T06:23:37.912Z,98157.00
2022-10-24T06:26:11.972Z,98167.00
2022-10-24T06:28:40.260Z,98160.00
2022-10-24T06:31:11.053Z,98161.00
2022-10-24T06:33:38.449Z,98160.00
2022-10-24T06:36:09.470Z,98159.00
2022-10-24T06:38:37.558Z,98173.00
2022-10-24T06:41:11.339Z,98189.00
2022-10-24T06:43:39.727Z,98193.00
2022-10-24T06:46:16.313Z,98221.00
2022-10-24T06:48:43.811Z,98219.00
2022-10-24T06:51:18.773Z,98220.00
2022-10-24T06:53:46.832Z,98231.00
2022-10-24T06:56:14.660Z,98235.00
2022-10-24T06:58:42.248Z,98230.00
2022-10-24T07:01:18.132Z,98184.00
2022-10-24T07:03:46.621Z,98202.00
2022-10-24T07:06:24.755Z,98202.00
2022-10-24T07:08:59.808Z,98207.00
2022-10-24T07:11:31.537Z,98205.00
2022-10-24T07:14:01.612Z,98231.00
2022-10-24T07:16:30.255Z,98256.00
2022-10-24T07:18:57.645Z,98255.00
2022-10-24T07:21:33.356Z,98261.00
2022-10-24T07:24:01.352Z,98256.00
2022-10-24T07:26:30.375Z,98243.00
2022-10-24T07:31:34.564Z,98245.00
2022-10-24T07:34:06.702Z,98260.00
2022-10-24T07:36:34.004Z,98275.00
2022-10-24T07:39:01.896Z,98265.00
2022-10-24T07:41:32.978Z,98249.00
2022-10-24T07:44:04.412Z,98205.00
2022-10-24T07:46:31.977Z,98228.00
2022-10-24T07:48:59.356Z,98227.00
2022-10-24T07:51:28.556Z,98219.00
2022-10-24T07:53:58.769Z,98234.00
2022-10-24T07:56:26.857Z,98235.00
2022-10-24T07:58:56.080Z,98265.00
2022-10-24T08:01:26.826Z,98264.00
2022-10-24T08:03:56.168Z,98280.00
2022-10-24T08:06:30.995Z,98264.00
2022-10-24T08:08:58.629Z,98286.00
2022-10-24T08:11:28.996Z,98270.00
2022-10-24T08:14:00.461Z,98269.00
2022-10-24T08:16:28.113Z,98257.00
2022-10-24T08:18:58.225Z,98222.00
2022-10-24T08:21:26.807Z,98238.00
2022-10-24T08:23:55.874Z,98246.00
2022-10-24T08:26:26.278Z,98266.00
2022-10-24T08:28:55.481Z,98283.00
2022-10-24T08:31:26.365Z,98290.00
2022-10-24T08:33:55.886Z,98287.00
2022-10-24T08:36:32.356Z,98285.00
2022-10-24T08:39:01.461Z,98283.00
2022-10-24T08:41:43.719Z,98301.00
2022-10-24T08:44:32.755Z,98301.00
2022-10-24T08:48:06.848Z,98311.00
2022-10-24T08:50:36.748Z,98329.00
2022-10-24T08:53:32.016Z,98333.00
2022-10-24T08:56:04.121Z,98319.00
2022-10-24T08:58:46.542Z,98324.00
2022-10-24T09:02:01.998Z,98327.00
2022-10-24T09:04:56.157Z,98308.00
2022-10-24T09:10:42.729Z,98337.00
2022-10-24T09:13:17.178Z,98340.00
2022-10-24T09:15:47.603Z,98345.00
2022-10-24T09:18:41.135Z,98348.00
2022-10-24T09:21:15.672Z,98376.00
2022-10-24T09:23:43.730Z,98368.00
2022-10-24T09:26:38.323Z,98367.00
2022-10-24T09:29:05.726Z,98385.00
2022-10-24T09:31:33.129Z,98392.00
2022-10-24T09:34:01.196Z,98412.00
2022-10-24T09:36:30.705Z,98412.00
2022-10-24T09:39:14.224Z,98399.00
2022-10-24T09:41:47.407Z,98364.00
2022-10-24T09:44:44.045Z,98325.00
2022-10-24T09:47:29.393Z,98333.00
2022-10-24T09:49:57.161Z,98338.00
2022-10-24T09:52:29.559Z,98348.00
2022-10-24T09:55:24.215Z,98365.00
2022-10-24T09:58:00.182Z,98363.00
2022-10-24T10:00:35.256Z,98371.00
2022-10-24T10:03:23.930Z,98393.00
2022-10-24T10:06:04.889Z,98406.00
2022-10-24T10:08:36.573Z,98385.00
2022-10-24T10:11:13.757Z,98401.00
2022-10-24T10:13:54.877Z,98407.00
2022-10-24T10:17:02.798Z,98405.00
2022-10-24T10:19:45.861Z,98417.00
2022-10-24T10:22:32.169Z,98403.00
2022-10-24T10:25:01.030Z,98391.00
2022-10-24T10:27:41.048Z,98396.00
2022-10-24T10:30:17.259Z,98390.00
2022-10-24T10:33:56.381Z,98391.00
2022-10-24T10:36:48.380Z,98384.00
2022-10-24T10:39:55.561Z,98377.00
2022-10-24T10:43:21.332Z,98395.00
2022-10-24T10:46:35.445Z,98403.00
2022-10-24T10:49:39.981Z,98388.00
2022-10-24T10:52:49.392Z,98394.00
2022-10-24T10:55:44.414Z,98372.00
2022-10-24T10:59:14.318Z,98378.00
2022-10-24T11:02:28.558Z,98395.00
2022-10-24T11:06:21.106Z,98355.00
2022-10-24T11:09:29.630Z,98333.00
2022-10-24T11:12:42.928Z,98342.00
2022-10-24T11:15:31.176Z,98341.00
2022-10-24T11:18:31.630Z,98335.00
2022-10-24T11:21:11.128Z,98344.00
2022-10-24T11:24:02.614Z,98342.00
2022-10-24T11:26:53.815Z,98340.00
2022-10-24T11:29:54.552Z,98330.00
2022-10-24T11:32:36.885Z,98335.00
2022-10-24T11:35:34.661Z,98332.00
2022-10-24T11:38:23.101Z,98340.00
2022-10-24T11:41:01.008Z,98335.00
2022-10-24T11:43:44.238Z,98343.00
2022-10-24T11:46:32.931Z,98349.00
2022-10-24T11:49:32.999Z,98342.00
2022-10-24T11:52:27.089Z,98347.00
2022-10-24T11:55:16.510Z,98346.00
2022-10-24T11:57:59.458Z,98345.00
2022-10-24T12:01:21.025Z,98356.00
2022-10-24T12:04:35.442Z,98352.00
2022-10-24T12:07:32.984Z,98356.00
2022-10-24T12:10:54.554Z,98345.00
2022-10-24T12:13:53.035Z,98343.00
2022-10-24T12:17:06.345Z,98339.00
2022-10-24T12:19:34.197Z,98337.00
2022-10-24T12:22:06.152Z,98340.00
2022-10-24T12:24:38.993Z,98341.00
2022-10-24T12:27:21.480Z,98343.00
2022-10-24T12:30:08.938Z,98335.00
2022-10-24T12:32:46.068Z,98320.00
2022-10-24T12:35:46.625Z,98316.00
2022-10-24T12:38:27.700Z,98309.00
2022-10-24T12:41:33.092Z,98315.00
2022-10-24T12:44:34.197Z,98316.00
2022-10-24T12:47:33.752Z,98322.00
2022-10-24T12:50:22.696Z,98325.00
2022-10-24T12:53:16.248Z,98331.00
2022-10-24T12:55:43.268Z,98318.00
2022-10-24T12:58:39.238Z,98319.00
2022-10-24T13:01:37.603Z,98314.00
2022-10-24T13:05:06.504Z,98313.00
2022-10-24T13:08:01.239Z,98317.00
2022-10-24T13:11:44.222Z,98319.00
2022-10-24T13:14:55.836Z,98307.00
2022-10-24T13:18:13.918Z,98295.00
2022-10-24T13:20:52.057Z,98326.00
2022-10-24T13:23:28.352Z,98326.00
2022-10-24T13:25:58.717Z,98326.00
2022-10-24T13:28:25.752Z,98333.00
2022-10-24T13:30:59.069Z,98339.00
2022-10-24T13:33:32.421Z,98338.00
2022-10-24T13:36:18.143Z,98325.00
2022-10-24T13:39:15.890Z,98322.00
2022-10-24T13:41:55.773Z,98316.00
2022-10-24T13:44:49.269Z,98308.00
2022-10-24T13:47:48.784Z,98319.00
2022-10-24T13:50:28.854Z,98320.00
2022-10-24T13:53:21.013Z,98317.00
2022-10-24T13:55:54.348Z,98313.00
2022-10-24T13:58:31.599Z,98320.00
2022-10-24T14:01:30.331Z,98311.00
2022-10-24T14:04:00.552Z,98298.00
2022-10-24T14:06:33.729Z,98311.00
2022-10-24T14:09:10.698Z,98321.00
2022-10-24T14:11:47.990Z,98324.00
2022-10-24T14:14:40.129Z,98319.00
2022-10-24T14:17:36.417Z,98322.00
2022-10-24T14:20:09.755Z,98327.00
2022-10-24T14:22:41.514Z,98327.00
2022-10-24T14:25:38.605Z,98333.00
2022-10-24T14:28:21.608Z,98326.00
2022-10-24T14:31:18.461Z,98332.00
2022-10-24T14:33:50.484Z,98315.00
2022-10-24T14:36:23.105Z,98316.00
2022-10-24T14:38:55.294Z,98322.00
2022-10-24T14:41:44.201Z,98314.00
2022-10-24T14:44:16.605Z,98314.00
2022-10-24T14:46:47.803Z,98320.00
2022-10-24T14:49:27.176Z,98327.00
2022-10-24T14:52:10.769Z,98319.00
2022-10-24T14:55:03.219Z,98326.00
2022-10-24T14:57:34.384Z,98318.00
2022-10-24T15:00:19.779Z,98317.00
2022-10-24T15:02:50.969Z,98318.00
2022-10-24T15:05:20.749Z,98315.00
2022-10-24T15:08:27.840Z,98327.00
2022-10-24T15:11:24.554Z,98317.00
2022-10-24T15:14:06.190Z,98319.00
2022-10-24T15:16:40.721Z,98328.00
2022-10-24T15:19:18.107Z,98315.00
2022-10-24T15:21:47.000Z,98319.00
2022-10-24T15:24:26.541Z,98315.00
2022-10-24T15:27:13.011Z,98306.00
2022-10-24T15:29:41.130Z,98306.00
2022-10-24T15:32:11.397Z,98294.00
2022-10-24T15:34:38.676Z,98297.00
2022-10-24T15:37:07.712Z,98299.00
2022-10-24T15:39:34.997Z,98290.00
2022-10-24T15:44:49.720Z,98288.00
2022-10-24T15:47:17.078Z,98307.00
2022-10-24T15:49:44.448Z,98308.00
2022-10-24T15:52:16.631Z,98307.00
2022-10-24T15:54:44.329Z,98308.00
2022-10-24T15:57:19.024Z,98313.00
2022-10-24T15:59:46.364Z,98309.00
2022-10-24T16:02:24.500Z,98311.00
2022-10-24T16:04:51.856Z,98315.00
2022-10-24T16:07:19.692Z,98317.00
2022-10-24T16:09:46.957Z,98319.00
2022-10-24T16:12:14.367Z,98314.00
2022-10-24T16:14:41.640Z,98318.00
2022-10-24T16:17:09.032Z,98321.00
2022-10-24T16:19:36.296Z,98321.00
2022-10-24T16:22:03.738Z,98326.00
2022-10-24T16:24:31.012Z,98318.00
2022-10-24T16:26:58.375Z,98329.00
2022-10-24T16:29:25.704Z,98330.00
2022-10-24T16:31:53.149Z,98332.00
2022-10-24T16:34:20.521Z,98331.00
2022-10-24T16:36:47.780Z,98332.00
2022-10-24T16:39:16.408Z,98334.00
2022-10-24T16:41:46.334Z,98339.00
2022-10-24T16:44:14.729Z,98336.00
2022-10-24T16:46:41.996Z,98336.00
2022-10-24T16:49:09.260Z,98340.00
2022-10-24T16:51:40.480Z,98342.00
2022-10-24T16:54:11.497Z,98338.00
2022-10-24T16:56:38.817Z,98349.00
2022-10-24T16:59:06.080Z,98357.00
2022-10-24T17:01:33.495Z,98360.00
2022-10-24T17:04:01.808Z,98369.00
2022-10-24T17:06:29.129Z,98360.00
2022-10-24T17:08:57.185Z,98353.00
2022-10-24T17:14:14.288Z,98357.00
2022-10-24T17:16:43.749Z,98368.00
2022-10-24T17:19:16.221Z,98364.00
2022-10-24T17:21:50.977Z,98364.00
2022-10-24T17:24:25.684Z,98366.00
2022-10-24T17:26:54.225Z,98385.00
2022-10-24T17:29:33.584Z,98390.00
2022-10-24T17:32:01.306Z,98370.00
2022-10-24T17:34:29.556Z,98379.00
2022-10-24T17:37:16.144Z,98379.00
2022-10-24T17:40:02.893Z,98382.00
2022-10-24T17:42:31.530Z,98379.00
2022-10-24T17:44:59.083Z,98379.00
2022-10-24T17:47:26.742Z,98376.00
2022-10-24T17:49:54.019Z,98389.00
2022-10-24T17:52:24.925Z,98390.00
2022-10-24T17:54:52.510Z,98392.00
2022-10-24T17:57:19.859Z,98392.00
2022-10-24T17:59:47.117Z,98389.00
2022-10-24T18:02:15.233Z,98398.00
2022-10-24T18:04:44.809Z,98389.00
2022-10-24T18:07:12.252Z,98398.00
2022-10-24T18:09:40.121Z,98406.00
2022-10-24T18:12:07.723Z,98419.00
2022-10-24T18:14:37.511Z,98425.00
2022-10-24T18:17:05.092Z,98425.00
2022-10-24T18:19:32.468Z,98435.00
2022-10-24T18:21:59.732Z,98434.00
2022-10-24T18:24:27.011Z,98421.00
2022-10-24T18:26:54.276Z,98448.00
2022-10-24T18:29:21.582Z,98438.00
2022-10-24T18:31:48.883Z,98441.00
2022-10-24T18:34:16.169Z,98447.00
2022-10-24T18:36:43.427Z,98447.00
2022-10-24T18:39:10.787Z,98453.00
2022-10-24T18:42:05.518Z,98458.00
2022-10-24T18:44:35.293Z,98458.00
2022-10-24T18:47:08.422Z,98440.00
2022-10-24T18:49:36.647Z,98463.00
2022-10-24T18:52:10.110Z,98466.00
2022-10-24T18:54:58.584Z,98465.00
2022-10-24T18:57:34.450Z,98469.00
2022-10-24T19:00:01.955Z,98471.00
2022-10-24T19:03:30.619Z,98471.00
2022-10-24T19:06:26.136Z,98464.00
2022-10-24T19:08:53.725Z,98466.00
2022-10-24T19:11:23.190Z,98455.00
2022-10-24T19:13:50.698Z,98461.00
2022-10-24T19:16:28.870Z,98450.00
2022-10-24T19:19:01.058Z,98454.00
2022-10-24T19:21:28.627Z,98463.00
2022-10-24T19:23:55.915Z,98465.00
2022-10-24T19:26:23.449Z,98472.00
2022-10-24T19:28:50.750Z,98471.00
2022-10-24T19:31:18.015Z,98465.00
2022-10-24T19:33:45.280Z,98469.00
2022-10-24T19:36:15.568Z,98466.00
2022-10-24T19:38:45.636Z,98457.00
2022-10-24T19:41:12.968Z,98453.00
2022-10-24T19:43:40.309Z,98458.00
2022-10-24T19:46:19.293Z,98464.00
2022-10-24T19:48:49.678Z,98469.00
2022-10-24T19:51:20.093Z,98453.00
2022-10-24T19:53:50.367Z,98466.00
2022-10-24T19:56:26.256Z,98459.00
2022-10-24T19:58:55.877Z,98454.00
2022-10-24T20:01:28.032Z,98462.00
2022-10-24T20:03:57.042Z,98467.00
2022-10-24T20:06:27.825Z,98468.00
2022-10-24T20:08:55.087Z,98460.00
2022-10-24T20:11:23.747Z,98462.00
2022-10-24T20:13:51.018Z,98459.00
2022-10-24T20:16:18.537Z,98468.00
2022-10-24T20:18:46.722Z,98475.00
2022-10-24T20:21:18.272Z,98479.00
2022-10-24T20:23:48.456Z,98482.00
2022-10-24T20:26:26.760Z,98482.00
2022-10-24T20:28:56.029Z,98490.00
2022-10-24T20:31:39.591Z,98477.00
2022-10-24T20:34:12.051Z,98495.00
2022-10-24T20:36:44.658Z,98497.00
2022-10-24T20:39:13.611Z,98508.00
2022-10-24T20:41:42.211Z,98509.00
2022-10-24T20:44:11.184Z,98507.00
2022-10-24T20:46:38.523Z,98520.00
2022-10-24T20:49:06.152Z,98515.00
2022-10-24T20:51:33.403Z,98514.00
2022-10-24T20:54:00.925Z,98527.00
2022-10-24T20:56:28.552Z,98530.00
2022-10-24T20:58:56.604Z,98536.00
2022-10-24T21:01:28.707Z,98543.00
2022-10-24T21:03:58.179Z,98534.00
2022-10-24T21:06:33.323Z,98534.00
2022-10-24T21:09:07.065Z,98534.00
2022-10-24T21:11:36.154Z,98549.00
2022-10-24T21:14:10.967Z,98554.00
2022-10-24T21:16:45.186Z,98580.00
2022-10-24T21:19:12.537Z,98616.00
2022-10-24T21:21:40.573Z,98634.00
2022-10-24T21:24:09.408Z,98621.00
2022-10-24T21:26:40.046Z,98592.00
2022-10-24T21:29:27.944Z,98587.00
2022-10-24T21:31:56.322Z,98593.00
2022-10-24T21:34:23.838Z,98605.00
2022-10-24T21:36:51.176Z,98600.00
2022-10-24T21:39:19.062Z,98611.00
2022-10-24T21:41:46.533Z,98606.00
2022-10-24T21:44:14.514Z,98620.00
2022-10-24T21:46:42.248Z,98610.00
2022-10-24T21:49:10.411Z,98612.00
2022-10-24T21:51:41.112Z,98619.00
2022-10-24T21:54:24.271Z,98610.00
2022-10-24T21:56:51.861Z,98616.00
2022-10-24T21:59:22.121Z,98611.00
2022-10-24T22:01:52.058Z,98613.00
2022-10-24T22:04:20.453Z,98601.00
2022-10-24T22:06:50.695Z,98608.00
2022-10-24T22:09:26.152Z,98601.00
2022-10-24T22:11:57.611Z,98602.00
2022-10-24T22:14:25.337Z,98609.00
2022-10-24T22:16:53.332Z,98612.00
2022-10-24T22:19:21.050Z,98619.00
2022-10-24T22:21:51.354Z,98626.00
2022-10-24T22:24:23.797Z,98633.00
2022-10-24T22:26:52.753Z,98632.00
2022-10-24T22:29:24.054Z,98646.00
2022-10-24T22:31:54.147Z,98652.00
2022-10-24T22:34:25.845Z,98660.00
2022-10-24T22:37:15.787Z,98645.00
2022-10-24T22:39:43.513Z,98656.00
2022-10-24T22:42:14.733Z,98658.00
2022-10-24T22:44:45.627Z,98652.00
2022-10-24T22:47:55.162Z,98646.00
2022-10-24T22:50:46.387Z,98648.00
2022-10-24T22:53:19.658Z,98654.00
2022-10-24T22:55:55.303Z,98656.00
2022-10-24T22:58:23.312Z,98649.00
2022-10-24T23:01:21.136Z,98651.00
2022-10-24T23:04:26.277Z,98649.00
2022-10-24T23:07:27.666Z,98645.00
2022-10-24T23:09:55.547Z,98644.00
2022-10-24T23:12:24.459Z,98651.00
2022-10-24T23:14:53.763Z,98646.00
2022-10-24T23:17:30.936Z,98656.00
2022-10-24T23:19:59.289Z,98664.00
2022-10-24T23:22:33.308Z,98661.00
2022-10-24T23:25:02.321Z,98671.00
2022-10-24T23:27:43.273Z,98669.00
2022-10-24T23:30:23.355Z,98681.00
2022-10-24T23:32:51.964Z,98679.00
2022-10-24T23:35:21.839Z,98680.00
2022-10-24T23:37:53.744Z,98675.00
2022-10-24T23:40:34.697Z,98680.00
2022-10-24T23:43:05.036Z,98679.00
2022-10-24T23:45:50.349Z,98681.00
2022-10-24T23:49:06.773Z,98694.00
2022-10-24T23:52:12.755Z,98693.00
2022-10-24T23:54:40.832Z,98690.00
2022-10-24T23:57:19.681Z,98687.00
2022-10-24T23:59:47.392Z,98694.00
